Terminal Aerodrome Forecast
Issued by NWS Wilmington, OH

Current Version | Previous Version | Graphics & Text | Print | Product List | Glossary On
Versions: 1 2 3 4 5 6 7 8 9 10 11 12 13 14 15 16 17 18 19 20
000
FTUS41 KILN 222300
TAFDAY
TAF
KDAY 222336Z 2300/2324 23005KT P6SM SCT250
     FM231100 24006KT P6SM VCTS BKN040CB
     FM231400 29010KT P6SM VCTS OVC040CB
     FM231800 34010KT P6SM BKN040=

USA.gov is the U.S. government's official web portal to all federal, state and local government web resources and services.